sensor_id;sensor_type;location;lat;lon;timestamp;pressure;altitude;pressure_sealevel;temperature
41654;BMP280;30790;52.030;7.110;2023-02-01T00:00:04;101042.13;;;20.22
41654;BMP280;30790;52.030;7.110;2023-02-01T00:02:29;101039.03;;;20.19
41654;BMP280;30790;52.030;7.110;2023-02-01T00:04:54;101039.03;;;20.19
41654;BMP280;30790;52.030;7.110;2023-02-01T00:07:20;101029.56;;;20.10
41654;BMP280;30790;52.030;7.110;2023-02-01T00:09:45;101040.47;;;20.10
41654;BMP280;30790;52.030;7.110;2023-02-01T00:12:10;101048.28;;;20.18
41654;BMP280;30790;52.030;7.110;2023-02-01T00:14:36;101040.00;;;20.13
41654;BMP280;30790;52.030;7.110;2023-02-01T00:17:07;101021.16;;;20.11
41654;BMP280;30790;52.030;7.110;2023-02-01T00:19:33;101024.94;;;20.10
41654;BMP280;30790;52.030;7.110;2023-02-01T00:21:58;101021.63;;;20.08
41654;BMP280;30790;52.030;7.110;2023-02-01T00:24:24;101013.09;;;20.04
41654;BMP280;30790;52.030;7.110;2023-02-01T00:26:49;101018.06;;;20.08
41654;BMP280;30790;52.030;7.110;2023-02-01T00:29:16;101011.56;;;20.09
41654;BMP280;30790;52.030;7.110;2023-02-01T00:31:43;101011.91;;;20.00
41654;BMP280;30790;52.030;7.110;2023-02-01T00:34:13;101012.88;;;20.06
41654;BMP280;30790;52.030;7.110;2023-02-01T00:36:40;101004.09;;;20.04
41654;BMP280;30790;52.030;7.110;2023-02-01T00:39:06;101014.16;;;20.03
41654;BMP280;30790;52.030;7.110;2023-02-01T00:41:31;101013.59;;;20.01
41654;BMP280;30790;52.030;7.110;2023-02-01T00:43:56;100989.63;;;19.92
41654;BMP280;30790;52.030;7.110;2023-02-01T00:46:22;100998.50;;;19.99
41654;BMP280;30790;52.030;7.110;2023-02-01T00:48:48;100997.47;;;20.00
41654;BMP280;30790;52.030;7.110;2023-02-01T00:51:16;100988.91;;;19.96
41654;BMP280;30790;52.030;7.110;2023-02-01T00:53:41;101001.94;;;19.94
41654;BMP280;30790;52.030;7.110;2023-02-01T00:56:07;100985.34;;;19.96
41654;BMP280;30790;52.030;7.110;2023-02-01T00:58:33;100992.47;;;19.97
41654;BMP280;30790;52.030;7.110;2023-02-01T01:01:07;100994.47;;;19.90
41654;BMP280;30790;52.030;7.110;2023-02-01T01:03:34;100976.84;;;19.81
41654;BMP280;30790;52.030;7.110;2023-02-01T01:06:02;101002.41;;;19.91
41654;BMP280;30790;52.030;7.110;2023-02-01T01:08:28;101006.31;;;19.95
41654;BMP280;30790;52.030;7.110;2023-02-01T01:10:54;101005.13;;;19.91
41654;BMP280;30790;52.030;7.110;2023-02-01T01:13:19;101002.66;;;19.90
41654;BMP280;30790;52.030;7.110;2023-02-01T01:15:45;101004.19;;;19.86
41654;BMP280;30790;52.030;7.110;2023-02-01T01:18:10;101016.50;;;19.88
41654;BMP280;30790;52.030;7.110;2023-02-01T01:20:37;101014.38;;;19.90
41654;BMP280;30790;52.030;7.110;2023-02-01T01:23:03;101010.22;;;19.88
41654;BMP280;30790;52.030;7.110;2023-02-01T01:25:28;101020.31;;;19.87
41654;BMP280;30790;52.030;7.110;2023-02-01T01:27:54;101026.00;;;19.86
41654;BMP280;30790;52.030;7.110;2023-02-01T01:30:19;101005.84;;;19.75
41654;BMP280;30790;52.030;7.110;2023-02-01T01:32:44;101010.94;;;19.83
41654;BMP280;30790;52.030;7.110;2023-02-01T01:35:10;101007.41;;;19.83
41654;BMP280;30790;52.030;7.110;2023-02-01T01:37:35;101006.56;;;19.82
41654;BMP280;30790;52.030;7.110;2023-02-01T01:40:02;101005.72;;;19.82
41654;BMP280;30790;52.030;7.110;2023-02-01T01:42:27;100997.44;;;19.77
41654;BMP280;30790;52.030;7.110;2023-02-01T01:45:02;101005.97;;;19.80
41654;BMP280;30790;52.030;7.110;2023-02-01T01:47:36;100996.16;;;19.79
41654;BMP280;30790;52.030;7.110;2023-02-01T01:50:04;100994.00;;;19.81
41654;BMP280;30790;52.030;7.110;2023-02-01T01:52:31;100988.22;;;19.78
41654;BMP280;30790;52.030;7.110;2023-02-01T01:54:57;100978.38;;;19.77
41654;BMP280;30790;52.030;7.110;2023-02-01T01:57:30;100979.22;;;19.77
41654;BMP280;30790;52.030;7.110;2023-02-01T02:00:03;100977.78;;;19.74
41654;BMP280;30790;52.030;7.110;2023-02-01T02:02:30;100971.38;;;19.69
41654;BMP280;30790;52.030;7.110;2023-02-01T02:04:56;100967.97;;;19.73
41654;BMP280;30790;52.030;7.110;2023-02-01T02:07:25;100971.94;;;19.71
41654;BMP280;30790;52.030;7.110;2023-02-01T02:09:52;100958.81;;;19.68
41654;BMP280;30790;52.030;7.110;2023-02-01T02:12:17;100957.63;;;19.64
41654;BMP280;30790;52.030;7.110;2023-02-01T02:14:43;100948.97;;;19.67
41654;BMP280;30790;52.030;7.110;2023-02-01T02:20:05;100959.63;;;19.68
41654;BMP280;30790;52.030;7.110;2023-02-01T02:25:55;100949.34;;;19.70
41654;BMP280;30790;52.030;7.110;2023-02-01T02:31:04;100937.03;;;19.68
41654;BMP280;30790;52.030;7.110;2023-02-01T02:36:18;100928.16;;;19.61
41654;BMP280;30790;52.030;7.110;2023-02-01T02:41:40;100924.94;;;19.64
41654;BMP280;30790;52.030;7.110;2023-02-01T02:47:29;100921.03;;;19.60
41654;BMP280;30790;52.030;7.110;2023-02-01T02:50:09;100923.75;;;19.60
41654;BMP280;30790;52.030;7.110;2023-02-01T02:53:16;100921.03;;;19.60
41654;BMP280;30790;52.030;7.110;2023-02-01T02:56:03;100909.56;;;19.58
41654;BMP280;30790;52.030;7.110;2023-02-01T02:58:49;100913.94;;;19.59
41654;BMP280;30790;52.030;7.110;2023-02-01T03:01:34;100911.94;;;19.54
41654;BMP280;30790;52.030;7.110;2023-02-01T03:04:18;100921.50;;;19.57
41654;BMP280;30790;52.030;7.110;2023-02-01T03:06:45;100905.41;;;19.55
41654;BMP280;30790;52.030;7.110;2023-02-01T03:09:27;100906.00;;;19.57
41654;BMP280;30790;52.030;7.110;2023-02-01T03:11:59;100906.84;;;19.58
41654;BMP280;30790;52.030;7.110;2023-02-01T03:14:47;100899.13;;;19.55
41654;BMP280;30790;52.030;7.110;2023-02-01T03:17:18;100889.66;;;19.57
41654;BMP280;30790;52.030;7.110;2023-02-01T03:19:48;100875.69;;;19.54
41654;BMP280;30790;52.030;7.110;2023-02-01T03:22:23;100880.53;;;19.52
41654;BMP280;30790;52.030;7.110;2023-02-01T03:24:54;100883.03;;;19.53
41654;BMP280;30790;52.030;7.110;2023-02-01T03:30:31;100886.59;;;19.54
41654;BMP280;30790;52.030;7.110;2023-02-01T03:33:00;100870.47;;;19.52
41654;BMP280;30790;52.030;7.110;2023-02-01T03:35:40;100873.44;;;19.51
41654;BMP280;30790;52.030;7.110;2023-02-01T03:40:46;100878.88;;;19.51
41654;BMP280;30790;52.030;7.110;2023-02-01T03:43:16;100887.88;;;19.51
41654;BMP280;30790;52.030;7.110;2023-02-01T03:45:46;100888.34;;;19.48
41654;BMP280;30790;52.030;7.110;2023-02-01T03:48:14;100876.63;;;19.48
41654;BMP280;30790;52.030;7.110;2023-02-01T03:50:48;100886.44;;;19.49
41654;BMP280;30790;52.030;7.110;2023-02-01T03:53:17;100877.69;;;19.47
41654;BMP280;30790;52.030;7.110;2023-02-01T03:55:44;100879.59;;;19.46
41654;BMP280;30790;52.030;7.110;2023-02-01T03:58:19;100872.25;;;19.47
41654;BMP280;30790;52.030;7.110;2023-02-01T04:00:50;100881.47;;;19.45
41654;BMP280;30790;52.030;7.110;2023-02-01T04:03:16;100872.69;;;19.43
41654;BMP280;30790;52.030;7.110;2023-02-01T04:05:41;100872.25;;;19.47
41654;BMP280;30790;52.030;7.110;2023-02-01T04:08:07;100873.50;;;19.44
41654;BMP280;30790;52.030;7.110;2023-02-01T04:10:32;100866.66;;;19.41
41654;BMP280;30790;52.030;7.110;2023-02-01T04:12:58;100877.69;;;19.47
41654;BMP280;30790;52.030;7.110;2023-02-01T04:15:23;100858.97;;;19.38
41654;BMP280;30790;52.030;7.110;2023-02-01T04:17:49;100855.16;;;19.39
41654;BMP280;30790;52.030;7.110;2023-02-01T04:20:14;100844.16;;;19.34
41654;BMP280;30790;52.030;7.110;2023-02-01T04:22:39;100855.16;;;19.39
41654;BMP280;30790;52.030;7.110;2023-02-01T04:25:05;100859.56;;;19.40
41654;BMP280;30790;52.030;7.110;2023-02-01T04:27:31;100857.66;;;19.41
41654;BMP280;30790;52.030;7.110;2023-02-01T04:29:56;100835.88;;;19.29
41654;BMP280;30790;52.030;7.110;2023-02-01T04:32:21;100854.00;;;19.35
41654;BMP280;30790;52.030;7.110;2023-02-01T04:34:47;100856.00;;;19.40
41654;BMP280;30790;52.030;7.110;2023-02-01T04:37:12;100839.31;;;19.36
41654;BMP280;30790;52.030;7.110;2023-02-01T04:39:37;100851.38;;;19.40
41654;BMP280;30790;52.030;7.110;2023-02-01T04:42:03;100856.25;;;19.38
41654;BMP280;30790;52.030;7.110;2023-02-01T04:44:28;100860.25;;;19.36
41654;BMP280;30790;52.030;7.110;2023-02-01T04:46:54;100861.09;;;19.36
41654;BMP280;30790;52.030;7.110;2023-02-01T04:49:19;100860.25;;;19.36
41654;BMP280;30790;52.030;7.110;2023-02-01T04:51:46;100858.59;;;19.35
41654;BMP280;30790;52.030;7.110;2023-02-01T04:54:11;100857.78;;;19.34
41654;BMP280;30790;52.030;7.110;2023-02-01T04:56:37;100859.56;;;19.29
41654;BMP280;30790;52.030;7.110;2023-02-01T04:59:03;100857.78;;;19.34
41654;BMP280;30790;52.030;7.110;2023-02-01T05:01:28;100861.44;;;19.28
41654;BMP280;30790;52.030;7.110;2023-02-01T05:03:54;100853.16;;;19.35
41654;BMP280;30790;52.030;7.110;2023-02-01T05:06:20;100864.06;;;19.35
41654;BMP280;30790;52.030;7.110;2023-02-01T05:08:45;100847.13;;;19.21
41654;BMP280;30790;52.030;7.110;2023-02-01T05:11:10;100851.63;;;19.27
41654;BMP280;30790;52.030;7.110;2023-02-01T05:13:54;100849.13;;;19.26
41654;BMP280;30790;52.030;7.110;2023-02-01T05:16:19;100861.22;;;19.30
41654;BMP280;30790;52.030;7.110;2023-02-01T05:18:45;100856.84;;;19.29
41654;BMP280;30790;52.030;7.110;2023-02-01T05:21:10;100847.25;;;19.26
41654;BMP280;30790;52.030;7.110;2023-02-01T05:23:36;100851.63;;;19.27
41654;BMP280;30790;52.030;7.110;2023-02-01T05:26:21;100838.72;;;19.23
41654;BMP280;30790;52.030;7.110;2023-02-01T05:28:46;100838.50;;;19.24
41654;BMP280;30790;52.030;7.110;2023-02-01T05:31:11;100842.63;;;19.27
41654;BMP280;30790;52.030;7.110;2023-02-01T05:33:37;100830.22;;;19.19
41654;BMP280;30790;52.030;7.110;2023-02-01T05:36:02;100837.91;;;19.22
41654;BMP280;30790;52.030;7.110;2023-02-01T05:38:28;100819.44;;;19.24
41654;BMP280;30790;52.030;7.110;2023-02-01T05:40:55;100838.13;;;19.32
41654;BMP280;30790;52.030;7.110;2023-02-01T05:43:20;100828.91;;;19.33
41654;BMP280;30790;52.030;7.110;2023-02-01T05:45:45;100819.06;;;19.32
41654;BMP280;30790;52.030;7.110;2023-02-01T05:48:10;100822.97;;;19.36
41654;BMP280;30790;52.030;7.110;2023-02-01T05:50:36;100835.53;;;19.37
41654;BMP280;30790;52.030;7.110;2023-02-01T05:53:01;100834.47;;;19.38
41654;BMP280;30790;52.030;7.110;2023-02-01T05:55:26;100827.47;;;19.42
41654;BMP280;30790;52.030;7.110;2023-02-01T05:57:51;100813.50;;;19.39
41654;BMP280;30790;52.030;7.110;2023-02-01T06:00:17;100840.63;;;19.45
41654;BMP280;30790;52.030;7.110;2023-02-01T06:02:43;100840.84;;;19.44
41654;BMP280;30790;52.030;7.110;2023-02-01T06:05:08;100837.28;;;19.43
41654;BMP280;30790;52.030;7.110;2023-02-01T06:07:34;100848.31;;;19.49
41654;BMP280;30790;52.030;7.110;2023-02-01T06:09:59;100840.41;;;19.47
41654;BMP280;30790;52.030;7.110;2023-02-01T06:12:24;100843.72;;;19.49
41654;BMP280;30790;52.030;7.110;2023-02-01T06:14:49;100824.16;;;19.40
41654;BMP280;30790;52.030;7.110;2023-02-01T06:17:15;100851.63;;;19.51
41654;BMP280;30790;52.030;7.110;2023-02-01T06:19:40;100850.56;;;19.52
41654;BMP280;30790;52.030;7.110;2023-02-01T06:22:05;100850.72;;;19.57
41654;BMP280;30790;52.030;7.110;2023-02-01T06:24:31;100843.22;;;19.52
41654;BMP280;30790;52.030;7.110;2023-02-01T06:26:56;100861.13;;;19.60
41654;BMP280;30790;52.030;7.110;2023-02-01T06:29:21;100856.50;;;19.60
41654;BMP280;30790;52.030;7.110;2023-02-01T06:31:47;100849.28;;;19.66
41654;BMP280;30790;52.030;7.110;2023-02-01T06:34:12;100871.63;;;19.91
41654;BMP280;30790;52.030;7.110;2023-02-01T06:36:37;100852.81;;;20.01
41654;BMP280;30790;52.030;7.110;2023-02-01T06:39:03;100859.53;;;20.11
41654;BMP280;30790;52.030;7.110;2023-02-01T06:41:28;100866.41;;;20.13
41654;BMP280;30790;52.030;7.110;2023-02-01T06:43:54;100875.16;;;20.15
41654;BMP280;30790;52.030;7.110;2023-02-01T06:46:20;100889.59;;;20.27
41654;BMP280;30790;52.030;7.110;2023-02-01T06:48:45;100871.94;;;20.30
41654;BMP280;30790;52.030;7.110;2023-02-01T06:51:27;100882.00;;;20.41
41654;BMP280;30790;52.030;7.110;2023-02-01T06:53:53;100875.47;;;20.42
41654;BMP280;30790;52.030;7.110;2023-02-01T06:56:19;100873.56;;;20.43
41654;BMP280;30790;52.030;7.110;2023-02-01T06:58:44;100867.03;;;20.44
41654;BMP280;30790;52.030;7.110;2023-02-01T07:01:10;100878.50;;;20.57
41654;BMP280;30790;52.030;7.110;2023-02-01T07:03:36;100889.50;;;20.62
41654;BMP280;30790;52.030;7.110;2023-02-01T07:06:02;100893.56;;;20.60
41654;BMP280;30790;52.030;7.110;2023-02-01T07:08:28;100896.53;;;20.58
41654;BMP280;30790;52.030;7.110;2023-02-01T07:10:53;100904.47;;;20.60
41654;BMP280;30790;52.030;7.110;2023-02-01T07:13:19;100897.53;;;20.69
41654;BMP280;30790;52.030;7.110;2023-02-01T07:15:44;100897.06;;;20.72
41654;BMP280;30790;52.030;7.110;2023-02-01T07:18:11;100901.53;;;20.78
41654;BMP280;30790;52.030;7.110;2023-02-01T07:20:39;100895.72;;;20.75
41654;BMP280;30790;52.030;7.110;2023-02-01T07:23:04;100905.66;;;20.81
41654;BMP280;30790;52.030;7.110;2023-02-01T07:25:29;100888.72;;;20.79
41654;BMP280;30790;52.030;7.110;2023-02-01T07:27:55;100891.44;;;20.79
41654;BMP280;30790;52.030;7.110;2023-02-01T07:30:20;100903.28;;;20.84
41654;BMP280;30790;52.030;7.110;2023-02-01T07:32:45;100891.16;;;20.92
41654;BMP280;30790;52.030;7.110;2023-02-01T07:35:11;100905.38;;;20.94
41654;BMP280;30790;52.030;7.110;2023-02-01T07:37:36;100909.84;;;21.00
41654;BMP280;30790;52.030;7.110;2023-02-01T07:40:01;100906.63;;;21.03
41654;BMP280;30790;52.030;7.110;2023-02-01T07:42:27;100912.66;;;21.05
41654;BMP280;30790;52.030;7.110;2023-02-01T07:44:52;100890.16;;;20.98
41654;BMP280;30790;52.030;7.110;2023-02-01T07:47:17;100900.03;;;21.16
41654;BMP280;30790;52.030;7.110;2023-02-01T07:49:42;100903.09;;;21.19
41654;BMP280;30790;52.030;7.110;2023-02-01T07:52:08;100923.47;;;21.28
41654;BMP280;30790;52.030;7.110;2023-02-01T07:54:33;100905.25;;;21.17
41654;BMP280;30790;52.030;7.110;2023-02-01T07:56:58;100907.59;;;21.25
41654;BMP280;30790;52.030;7.110;2023-02-01T07:59:23;100911.56;;;21.35
41654;BMP280;30790;52.030;7.110;2023-02-01T08:01:49;100902.78;;;21.33
41654;BMP280;30790;52.030;7.110;2023-02-01T08:04:14;100907.75;;;21.36
41654;BMP280;30790;52.030;7.110;2023-02-01T08:06:39;100900.16;;;21.38
41654;BMP280;30790;52.030;7.110;2023-02-01T08:09:06;100908.44;;;21.43
41654;BMP280;30790;52.030;7.110;2023-02-01T08:11:33;100917.72;;;21.42
41654;BMP280;30790;52.030;7.110;2023-02-01T08:13:59;100921.84;;;21.44
41654;BMP280;30790;52.030;7.110;2023-02-01T08:16:25;100926.41;;;21.39
41654;BMP280;30790;52.030;7.110;2023-02-01T08:18:51;100918.53;;;21.42
41654;BMP280;30790;52.030;7.110;2023-02-01T08:21:19;100915.22;;;21.40
41654;BMP280;30790;52.030;7.110;2023-02-01T08:23:45;100915.56;;;21.44
41654;BMP280;30790;52.030;7.110;2023-02-01T08:26:20;100917.78;;;21.47
41654;BMP280;30790;52.030;7.110;2023-02-01T08:28:57;100927.06;;;21.46
41654;BMP280;30790;52.030;7.110;2023-02-01T08:31:26;100922.84;;;21.38
41654;BMP280;30790;52.030;7.110;2023-02-01T08:33:55;100923.31;;;21.35
41654;BMP280;30790;52.030;7.110;2023-02-01T08:36:22;100928.44;;;21.32
41654;BMP280;30790;52.030;7.110;2023-02-01T08:38:48;100938.88;;;21.35
41654;BMP280;30790;52.030;7.110;2023-02-01T08:41:17;100923.72;;;21.27
41654;BMP280;30790;52.030;7.110;2023-02-01T08:43:44;100934.97;;;21.31
41654;BMP280;30790;52.030;7.110;2023-02-01T08:46:10;100925.13;;;21.29
41654;BMP280;30790;52.030;7.110;2023-02-01T08:48:35;100930.59;;;21.29
41654;BMP280;30790;52.030;7.110;2023-02-01T08:51:02;100942.34;;;21.30
41654;BMP280;30790;52.030;7.110;2023-02-01T08:53:28;100927.78;;;21.24
41654;BMP280;30790;52.030;7.110;2023-02-01T08:55:53;100925.25;;;21.23
41654;BMP280;30790;52.030;7.110;2023-02-01T08:58:19;100928.00;;;21.23
41654;BMP280;30790;52.030;7.110;2023-02-01T09:00:44;100918.97;;;21.22
41654;BMP280;30790;52.030;7.110;2023-02-01T09:03:11;100931.91;;;21.27
41654;BMP280;30790;52.030;7.110;2023-02-01T09:05:38;100921.25;;;21.25
41654;BMP280;30790;52.030;7.110;2023-02-01T09:08:03;100915.41;;;21.22
41654;BMP280;30790;52.030;7.110;2023-02-01T09:10:29;100911.03;;;21.21
41654;BMP280;30790;52.030;7.110;2023-02-01T09:12:54;100908.47;;;21.14
41654;BMP280;30790;52.030;7.110;2023-02-01T09:15:20;100904.91;;;21.14
41654;BMP280;30790;52.030;7.110;2023-02-01T09:17:45;100909.78;;;21.12
41654;BMP280;30790;52.030;7.110;2023-02-01T09:20:11;100906.59;;;19.06
41654;BMP280;30790;52.030;7.110;2023-02-01T09:22:36;100907.16;;;16.49
41654;BMP280;30790;52.030;7.110;2023-02-01T09:25:01;100895.19;;;16.18
41654;BMP280;30790;52.030;7.110;2023-02-01T09:27:26;100906.13;;;15.59
41654;BMP280;30790;52.030;7.110;2023-02-01T09:29:52;100880.75;;;15.13
41654;BMP280;30790;52.030;7.110;2023-02-01T09:32:21;100899.00;;;14.98
41654;BMP280;30790;52.030;7.110;2023-02-01T09:34:47;100889.69;;;15.40
41654;BMP280;30790;52.030;7.110;2023-02-01T09:37:13;100891.53;;;16.89
41654;BMP280;30790;52.030;7.110;2023-02-01T09:39:38;100877.13;;;18.06
41654;BMP280;30790;52.030;7.110;2023-02-01T09:42:35;100875.00;;;19.05
41654;BMP280;30790;52.030;7.110;2023-02-01T09:45:38;100876.75;;;19.53
41654;BMP280;30790;52.030;7.110;2023-02-01T09:48:13;100879.00;;;19.79
41654;BMP280;30790;52.030;7.110;2023-02-01T09:50:45;100883.03;;;20.00
41654;BMP280;30790;52.030;7.110;2023-02-01T09:55:50;100876.31;;;20.31
41654;BMP280;30790;52.030;7.110;2023-02-01T09:58:27;100883.06;;;20.40
41654;BMP280;30790;52.030;7.110;2023-02-01T10:00:58;100892.03;;;20.52
41654;BMP280;30790;52.030;7.110;2023-02-01T10:03:27;100873.41;;;20.49
41654;BMP280;30790;52.030;7.110;2023-02-01T10:11:36;100887.81;;;20.33
41654;BMP280;30790;52.030;7.110;2023-02-01T10:22:43;100889.41;;;20.86
41654;BMP280;30790;52.030;7.110;2023-02-01T10:28:00;100889.66;;;20.84
41654;BMP280;30790;52.030;7.110;2023-02-01T10:30:33;100884.78;;;20.86
41654;BMP280;30790;52.030;7.110;2023-02-01T10:35:41;100873.69;;;20.93
41654;BMP280;30790;52.030;7.110;2023-02-01T10:40:42;100863.13;;;20.96
41654;BMP280;30790;52.030;7.110;2023-02-01T10:43:09;100867.84;;;21.01
41654;BMP280;30790;52.030;7.110;2023-02-01T10:45:34;100870.66;;;21.06
41654;BMP280;30790;52.030;7.110;2023-02-01T10:48:02;100876.69;;;21.08
41654;BMP280;30790;52.030;7.110;2023-02-01T10:50:35;100865.75;;;21.08
41654;BMP280;30790;52.030;7.110;2023-02-01T10:53:10;100871.84;;;21.10
41654;BMP280;30790;52.030;7.110;2023-02-01T10:58:18;100854.84;;;21.08
41654;BMP280;30790;52.030;7.110;2023-02-01T11:00:48;100852.13;;;21.08
41654;BMP280;30790;52.030;7.110;2023-02-01T11:03:56;100854.25;;;21.06
41654;BMP280;30790;52.030;7.110;2023-02-01T11:06:37;100844.94;;;21.02
41654;BMP280;30790;52.030;7.110;2023-02-01T11:11:30;100834.41;;;20.94
41654;BMP280;30790;52.030;7.110;2023-02-01T11:13:57;100826.81;;;20.96
41654;BMP280;30790;52.030;7.110;2023-02-01T11:16:34;100832.84;;;20.98
41654;BMP280;30790;52.030;7.110;2023-02-01T11:19:00;100823.50;;;20.94
41654;BMP280;30790;52.030;7.110;2023-02-01T11:21:25;100820.19;;;20.92
41654;BMP280;30790;52.030;7.110;2023-02-01T11:23:51;100808.47;;;20.91
41654;BMP280;30790;52.030;7.110;2023-02-01T11:26:22;100823.50;;;20.94
41654;BMP280;30790;52.030;7.110;2023-02-01T11:29:08;100828.97;;;20.94
41654;BMP280;30790;52.030;7.110;2023-02-01T11:31:35;100833.25;;;20.90
41654;BMP280;30790;52.030;7.110;2023-02-01T11:34:16;100810.63;;;20.89
41654;BMP280;30790;52.030;7.110;2023-02-01T11:36:45;100803.16;;;20.85
41654;BMP280;30790;52.030;7.110;2023-02-01T11:39:33;100821.19;;;20.86
41654;BMP280;30790;52.030;7.110;2023-02-01T11:44:39;100813.59;;;20.88
41654;BMP280;30790;52.030;7.110;2023-02-01T11:49:43;100815.03;;;20.79
41654;BMP280;30790;52.030;7.110;2023-02-01T11:52:30;100825.00;;;20.85
41654;BMP280;30790;52.030;7.110;2023-02-01T11:55:05;100812.19;;;20.85
41654;BMP280;30790;52.030;7.110;2023-02-01T12:00:55;100798.28;;;20.87
41654;BMP280;30790;52.030;7.110;2023-02-01T12:12:20;100787.50;;;20.80
41654;BMP280;30790;52.030;7.110;2023-02-01T12:23:41;100800.00;;;20.59
41654;BMP280;30790;52.030;7.110;2023-02-01T12:26:35;100794.13;;;20.67
41654;BMP280;30790;52.030;7.110;2023-02-01T12:35:01;100773.25;;;20.90
41654;BMP280;30790;52.030;7.110;2023-02-01T12:42:54;100748.25;;;20.98
41654;BMP280;30790;52.030;7.110;2023-02-01T12:45:34;100759.81;;;21.05
41654;BMP280;30790;52.030;7.110;2023-02-01T12:48:28;100759.50;;;21.02
41654;BMP280;30790;52.030;7.110;2023-02-01T12:51:00;100761.47;;;21.06
41654;BMP280;30790;52.030;7.110;2023-02-01T12:53:38;100762.03;;;21.08
41654;BMP280;30790;52.030;7.110;2023-02-01T12:56:13;100762.56;;;21.05
41654;BMP280;30790;52.030;7.110;2023-02-01T12:58:46;100742.72;;;21.10
41654;BMP280;30790;52.030;7.110;2023-02-01T13:01:21;100760.50;;;21.12
41654;BMP280;30790;52.030;7.110;2023-02-01T13:03:56;100751.22;;;21.13
41654;BMP280;30790;52.030;7.110;2023-02-01T13:06:34;100743.28;;;21.12
41654;BMP280;30790;52.030;7.110;2023-02-01T13:09:18;100755.03;;;21.12
41654;BMP280;30790;52.030;7.110;2023-02-01T13:11:45;100743.75;;;21.09
41654;BMP280;30790;52.030;7.110;2023-02-01T13:14:33;100745.91;;;21.07
41654;BMP280;30790;52.030;7.110;2023-02-01T13:17:08;100759.31;;;21.08
41654;BMP280;30790;52.030;7.110;2023-02-01T13:20:03;100742.13;;;21.08
41654;BMP280;30790;52.030;7.110;2023-02-01T13:22:43;100745.59;;;21.03
41654;BMP280;30790;52.030;7.110;2023-02-01T13:25:21;100749.72;;;21.06
41654;BMP280;30790;52.030;7.110;2023-02-01T13:27:54;100736.91;;;21.06
41654;BMP280;30790;52.030;7.110;2023-02-01T13:30:24;100743.53;;;21.10
41654;BMP280;30790;52.030;7.110;2023-02-01T13:35:50;100746.09;;;21.17
41654;BMP280;30790;52.030;7.110;2023-02-01T13:38:57;100738.47;;;21.19
41654;BMP280;30790;52.030;7.110;2023-02-01T13:44:11;100747.00;;;21.22
41654;BMP280;30790;52.030;7.110;2023-02-01T13:46:40;100745.09;;;21.23
41654;BMP280;30790;52.030;7.110;2023-02-01T13:49:06;100741.78;;;21.21
41654;BMP280;30790;52.030;7.110;2023-02-01T13:51:43;100735.50;;;21.20
41654;BMP280;30790;52.030;7.110;2023-02-01T13:54:26;100737.50;;;21.25
41654;BMP280;30790;52.030;7.110;2023-02-01T13:56:52;100742.13;;;21.24
41654;BMP280;30790;52.030;7.110;2023-02-01T14:05:02;100763.31;;;21.17
41654;BMP280;30790;52.030;7.110;2023-02-01T14:07:28;100753.84;;;21.08
41654;BMP280;30790;52.030;7.110;2023-02-01T14:09:53;100766.03;;;21.17
41654;BMP280;30790;52.030;7.110;2023-02-01T14:12:43;100781.56;;;21.34
41654;BMP280;30790;52.030;7.110;2023-02-01T14:15:19;100783.47;;;21.16
41654;BMP280;30790;52.030;7.110;2023-02-01T14:17:47;100782.41;;;21.17
41654;BMP280;30790;52.030;7.110;2023-02-01T14:20:44;100778.09;;;21.21
41654;BMP280;30790;52.030;7.110;2023-02-01T14:23:14;100802.66;;;21.21
41654;BMP280;30790;52.030;7.110;2023-02-01T14:25:40;100793.41;;;21.22
41654;BMP280;30790;52.030;7.110;2023-02-01T14:28:12;100797.56;;;21.25
41654;BMP280;30790;52.030;7.110;2023-02-01T14:30:39;100792.94;;;21.25
41654;BMP280;30790;52.030;7.110;2023-02-01T14:33:19;100783.66;;;21.26
41654;BMP280;30790;52.030;7.110;2023-02-01T14:36:00;100790.44;;;21.24
41654;BMP280;30790;52.030;7.110;2023-02-01T14:38:27;100796.63;;;21.19
41654;BMP280;30790;52.030;7.110;2023-02-01T14:41:11;100804.94;;;21.24
41654;BMP280;30790;52.030;7.110;2023-02-01T14:43:51;100797.31;;;21.26
41654;BMP280;30790;52.030;7.110;2023-02-01T14:46:17;100785.22;;;21.22
41654;BMP280;30790;52.030;7.110;2023-02-01T14:48:44;100800.03;;;21.26
41654;BMP280;30790;52.030;7.110;2023-02-01T14:51:13;100801.38;;;21.24
41654;BMP280;30790;52.030;7.110;2023-02-01T14:53:40;100793.97;;;21.08
41654;BMP280;30790;52.030;7.110;2023-02-01T14:56:12;100773.91;;;21.14
41654;BMP280;30790;52.030;7.110;2023-02-01T14:59:00;100804.09;;;21.24
41654;BMP280;30790;52.030;7.110;2023-02-01T15:01:37;100789.25;;;21.20
41654;BMP280;30790;52.030;7.110;2023-02-01T15:04:06;100798.97;;;21.27
41654;BMP280;30790;52.030;7.110;2023-02-01T15:06:42;100804.50;;;21.33
41654;BMP280;30790;52.030;7.110;2023-02-01T15:09:28;100810.13;;;21.43
41654;BMP280;30790;52.030;7.110;2023-02-01T15:14:22;100814.56;;;21.49
41654;BMP280;30790;52.030;7.110;2023-02-01T15:16:47;100807.72;;;21.46
41654;BMP280;30790;52.030;7.110;2023-02-01T15:19:23;100807.97;;;21.45
41654;BMP280;30790;52.030;7.110;2023-02-01T15:21:51;100815.09;;;21.46
41654;BMP280;30790;52.030;7.110;2023-02-01T15:24:26;100820.53;;;21.46
41654;BMP280;30790;52.030;7.110;2023-02-01T15:26:53;100826.25;;;21.44
41654;BMP280;30790;52.030;7.110;2023-02-01T15:29:20;100830.06;;;21.43
41654;BMP280;30790;52.030;7.110;2023-02-01T15:31:49;100814.50;;;21.27
41654;BMP280;30790;52.030;7.110;2023-02-01T15:34:15;100808.81;;;21.28
41654;BMP280;30790;52.030;7.110;2023-02-01T15:36:42;100815.59;;;21.43
41654;BMP280;30790;52.030;7.110;2023-02-01T15:39:20;100810.19;;;21.48
41654;BMP280;30790;52.030;7.110;2023-02-01T15:42:08;100812.94;;;21.48
41654;BMP280;30790;52.030;7.110;2023-02-01T15:44:42;100805.81;;;21.47
41654;BMP280;30790;52.030;7.110;2023-02-01T15:47:19;100820.53;;;21.46
41654;BMP280;30790;52.030;7.110;2023-02-01T15:49:47;100827.97;;;21.50
41654;BMP280;30790;52.030;7.110;2023-02-01T15:52:33;100822.19;;;21.47
41654;BMP280;30790;52.030;7.110;2023-02-01T15:55:02;100831.78;;;21.33